Time;durP1;ratioP1;P1;durP2;ratioP2;P2;SDS_P1;SDS_P2;PMS_P1;PMS_P2;Temp;Humidity;BMP_temperature;BMP_pressure;BME280_temperature;BME280_humidity;BME280_pressure;Samples;Min_cycle;Max_cycle;Signal;HPM_P1;HPM_P2
2023/07/24 00:00:49;;;;;;;3.72;2.10;;;;;;;;;;5031898;28;20432;-85
2023/07/24 00:03:14;;;;;;;6.90;2.00;;;;;;;;;;5031394;28;20476;-84
2023/07/24 00:05:40;;;;;;;4.43;1.92;;;;;;;;;;5032283;28;20032;-84
2023/07/24 00:08:06;;;;;;;4.57;1.83;;;;;;;;;;5031420;28;20017;-85
2023/07/24 00:10:32;;;;;;;4.70;2.08;;;;;;;;;;5030582;28;20034;-85
2023/07/24 00:12:57;;;;;;;14.75;2.60;;;;;;;;;;5032223;28;20366;-85
2023/07/24 00:15:22;;;;;;;5.82;2.25;;;;;;;;;;5033196;28;20068;-84
2023/07/24 00:17:47;;;;;;;4.60;2.25;;;;;;;;;;5030158;28;20125;-84
2023/07/24 00:20:13;;;;;;;6.63;2.13;;;;;;;;;;5031756;28;20052;-84
2023/07/24 00:22:38;;;;;;;4.28;2.03;;;;;;;;;;5032489;28;20051;-85
2023/07/24 00:25:05;;;;;;;8.52;2.50;;;;;;;;;;5034048;28;20020;-85
2023/07/24 00:27:31;;;;;;;9.07;2.47;;;;;;;;;;5033696;28;20036;-85
2023/07/24 00:29:56;;;;;;;6.78;2.40;;;;;;;;;;5032864;28;20068;-85
2023/07/24 00:32:21;;;;;;;4.68;1.88;;;;;;;;;;5033423;28;20096;-85
2023/07/24 00:34:46;;;;;;;9.43;2.50;;;;;;;;;;5033950;28;20105;-85
2023/07/24 00:37:14;;;;;;;7.18;2.80;;;;;;;;;;5033424;28;20010;-84
2023/07/24 00:39:39;;;;;;;11.15;2.97;;;;;;;;;;5032898;28;20017;-85
2023/07/24 00:42:05;;;;;;;5.95;2.85;;;;;;;;;;5033419;28;20067;-85
2023/07/24 00:44:30;;;;;;;8.18;2.95;;;;;;;;;;5033542;28;20016;-85
2023/07/24 00:46:55;;;;;;;6.82;3.83;;;;;;;;;;5033017;28;20041;-84
2023/07/24 00:49:21;;;;;;;13.60;3.55;;;;;;;;;;5033649;28;20025;-85
2023/07/24 00:51:46;;;;;;;9.13;3.40;;;;;;;;;;5033949;28;20029;-85
2023/07/24 00:54:13;;;;;;;18.80;3.70;;;;;;;;;;5033327;28;20413;-84
2023/07/24 00:56:39;;;;;;;8.38;3.22;;;;;;;;;;5033050;28;20060;-84
2023/07/24 00:59:04;;;;;;;6.82;3.22;;;;;;;;;;5032398;28;20064;-84
2023/07/24 01:01:30;;;;;;;7.35;3.58;;;;;;;;;;5032942;28;20040;-84
2023/07/24 01:03:56;;;;;;;7.57;3.65;;;;;;;;;;5034527;28;20017;-85
2023/07/24 01:06:21;;;;;;;7.45;3.60;;;;;;;;;;5034698;28;20249;-85
2023/07/24 01:08:47;;;;;;;10.60;4.28;;;;;;;;;;5032769;28;20522;-85
2023/07/24 01:11:17;;;;;;;11.35;4.78;;;;;;;;;;5032917;28;20029;-85
2023/07/24 01:13:48;;;;;;;7.97;4.07;;;;;;;;;;5034179;28;20088;-85
2023/07/24 01:16:14;;;;;;;8.90;3.53;;;;;;;;;;5032918;28;20029;-84
2023/07/24 01:18:42;;;;;;;9.75;3.85;;;;;;;;;;5029369;28;20034;-84
2023/07/24 01:21:08;;;;;;;8.70;3.92;;;;;;;;;;5033000;28;20025;-84
2023/07/24 01:23:43;;;;;;;15.13;4.97;;;;;;;;;;5033534;28;20048;-85
2023/07/24 01:26:08;;;;;;;13.20;4.90;;;;;;;;;;5031134;28;20049;-85
2023/07/24 01:28:33;;;;;;;9.20;4.28;;;;;;;;;;5034172;28;20025;-85
2023/07/24 01:30:59;;;;;;;8.00;4.00;;;;;;;;;;5034923;28;20552;-85
2023/07/24 01:33:24;;;;;;;14.50;4.60;;;;;;;;;;5034490;28;20056;-85
2023/07/24 01:35:52;;;;;;;14.32;4.40;;;;;;;;;;5035745;28;20032;-85
2023/07/24 01:38:17;;;;;;;11.20;3.75;;;;;;;;;;5032264;28;20048;-85
2023/07/24 01:40:42;;;;;;;8.50;3.67;;;;;;;;;;5032406;28;20108;-84
2023/07/24 01:43:08;;;;;;;11.20;4.00;;;;;;;;;;5034513;28;20068;-85
2023/07/24 01:45:34;;;;;;;15.38;4.72;;;;;;;;;;5032462;28;20021;-84
2023/07/24 01:47:59;;;;;;;14.15;3.90;;;;;;;;;;5032749;28;20026;-84
2023/07/24 01:50:24;;;;;;;9.15;3.80;;;;;;;;;;5029176;28;20025;-85
2023/07/24 01:52:50;;;;;;;12.20;3.70;;;;;;;;;;5031516;28;20025;-85
2023/07/24 01:55:15;;;;;;;12.25;3.85;;;;;;;;;;5032977;28;20021;-85
2023/07/24 01:57:40;;;;;;;8.38;4.00;;;;;;;;;;5031906;28;20028;-84
2023/07/24 02:00:06;;;;;;;12.07;4.13;;;;;;;;;;5031157;28;20156;-84
2023/07/24 02:02:31;;;;;;;9.48;4.38;;;;;;;;;;5031414;28;20027;-84
2023/07/24 02:04:56;;;;;;;17.70;5.10;;;;;;;;;;5032303;28;20113;-84
2023/07/24 02:07:24;;;;;;;12.50;4.68;;;;;;;;;;5031433;28;20049;-84
2023/07/24 02:09:50;;;;;;;14.43;4.75;;;;;;;;;;5031165;28;20056;-84
2023/07/24 02:12:15;;;;;;;18.63;5.50;;;;;;;;;;5030666;28;20057;-84
2023/07/24 02:14:40;;;;;;;11.82;4.53;;;;;;;;;;5031050;28;20028;-84
2023/07/24 02:17:08;;;;;;;12.55;4.70;;;;;;;;;;5032353;28;20017;-84
2023/07/24 02:19:33;;;;;;;10.98;4.88;;;;;;;;;;5031140;28;20072;-84
2023/07/24 02:21:58;;;;;;;12.23;4.82;;;;;;;;;;5030143;28;20057;-84
2023/07/24 02:24:24;;;;;;;13.63;5.05;;;;;;;;;;5030756;28;20021;-84
2023/07/24 02:26:49;;;;;;;13.02;4.20;;;;;;;;;;5017296;28;20034;-84
2023/07/24 02:29:14;;;;;;;13.07;4.63;;;;;;;;;;5032669;28;20025;-84
2023/07/24 02:31:40;;;;;;;12.93;4.65;;;;;;;;;;5030254;28;20380;-84
2023/07/24 02:34:05;;;;;;;13.30;4.75;;;;;;;;;;5045987;28;20142;-84
2023/07/24 02:36:30;;;;;;;13.13;4.50;;;;;;;;;;5034513;28;20026;-84
2023/07/24 02:38:56;;;;;;;9.95;4.60;;;;;;;;;;5032529;28;20028;-84
2023/07/24 02:41:21;;;;;;;14.88;4.47;;;;;;;;;;5038011;28;20663;-84
2023/07/24 02:43:46;;;;;;;15.88;4.30;;;;;;;;;;5047786;28;20013;-84
2023/07/24 02:46:11;;;;;;;15.50;5.05;;;;;;;;;;5059077;28;20531;-84
2023/07/24 02:48:37;;;;;;;8.02;4.10;;;;;;;;;;5046537;28;20138;-84
2023/07/24 02:51:05;;;;;;;8.98;4.32;;;;;;;;;;5034863;28;20446;-84
2023/07/24 02:53:30;;;;;;;7.53;3.47;;;;;;;;;;5035304;28;20040;-85
2023/07/24 02:55:55;;;;;;;7.47;3.15;;;;;;;;;;5048481;28;20052;-84
2023/07/24 02:58:23;;;;;;;8.13;3.10;;;;;;;;;;5034975;28;20035;-85
2023/07/24 03:00:48;;;;;;;11.40;3.40;;;;;;;;;;5036696;28;20032;-83
2023/07/24 03:03:17;;;;;;;10.98;3.55;;;;;;;;;;5045443;28;20135;-83
2023/07/24 03:05:43;;;;;;;7.00;3.05;;;;;;;;;;5043693;28;20105;-82
2023/07/24 03:08:08;;;;;;;7.38;3.53;;;;;;;;;;5039896;28;20041;-82
2023/07/24 03:10:33;;;;;;;6.18;2.83;;;;;;;;;;5048469;28;20029;-82
2023/07/24 03:12:59;;;;;;;5.82;2.97;;;;;;;;;;5032362;28;20029;-82
2023/07/24 03:15:26;;;;;;;6.10;3.13;;;;;;;;;;5031453;28;20029;-82
2023/07/24 03:17:52;;;;;;;8.50;3.25;;;;;;;;;;5037101;28;20033;-82
2023/07/24 03:20:18;;;;;;;6.53;2.83;;;;;;;;;;5031045;28;20112;-82
2023/07/24 03:22:47;;;;;;;4.40;2.17;;;;;;;;;;5045260;28;20112;-83
2023/07/24 03:25:13;;;;;;;5.68;2.65;;;;;;;;;;5036682;28;20071;-82
2023/07/24 03:27:38;;;;;;;5.63;2.83;;;;;;;;;;5043732;28;20029;-81
2023/07/24 03:30:04;;;;;;;10.38;3.00;;;;;;;;;;5062202;28;20100;-82
2023/07/24 03:32:29;;;;;;;5.30;3.00;;;;;;;;;;5041326;28;20025;-83
2023/07/24 03:34:54;;;;;;;5.18;2.13;;;;;;;;;;5053205;28;20029;-83
2023/07/24 03:37:20;;;;;;;3.78;1.63;;;;;;;;;;5031442;28;20451;-82
2023/07/24 03:39:45;;;;;;;4.15;1.30;;;;;;;;;;5045802;28;20025;-83
2023/07/24 03:42:12;;;;;;;3.65;1.40;;;;;;;;;;5037731;28;20021;-82
2023/07/24 03:44:38;;;;;;;1.83;1.15;;;;;;;;;;5039761;28;20025;-82
2023/07/24 03:47:03;;;;;;;2.88;1.48;;;;;;;;;;5034759;28;20610;-82
2023/07/24 03:49:28;;;;;;;3.58;1.20;;;;;;;;;;5066588;28;20024;-81
2023/07/24 03:51:54;;;;;;;3.45;1.58;;;;;;;;;;5052002;28;20386;-82
2023/07/24 03:54:19;;;;;;;2.83;1.50;;;;;;;;;;5066908;28;20031;-80
2023/07/24 03:56:44;;;;;;;4.13;1.60;;;;;;;;;;5052378;28;20127;-82
2023/07/24 03:59:09;;;;;;;4.43;1.70;;;;;;;;;;5035894;28;20025;-83
2023/07/24 04:01:35;;;;;;;3.50;1.48;;;;;;;;;;5067075;28;20033;-82
2023/07/24 04:04:03;;;;;;;3.95;1.52;;;;;;;;;;5067780;28;20033;-83
2023/07/24 04:06:28;;;;;;;1.98;1.30;;;;;;;;;;5043371;28;20101;-83
2023/07/24 04:08:54;;;;;;;4.97;1.77;;;;;;;;;;5043557;28;20521;-82
2023/07/24 04:11:19;;;;;;;4.00;1.50;;;;;;;;;;5031776;28;20071;-83
2023/07/24 04:13:44;;;;;;;6.22;1.20;;;;;;;;;;5032766;28;20341;-83
2023/07/24 04:16:10;;;;;;;2.80;1.42;;;;;;;;;;5034985;28;20048;-84
2023/07/24 04:18:35;;;;;;;3.80;1.60;;;;;;;;;;5032667;28;20045;-83
2023/07/24 04:21:00;;;;;;;4.43;1.80;;;;;;;;;;5033341;28;20099;-83
2023/07/24 04:23:26;;;;;;;2.83;1.30;;;;;;;;;;5034446;28;20083;-83
2023/07/24 04:25:53;;;;;;;4.05;1.55;;;;;;;;;;5033212;28;20037;-83
2023/07/24 04:28:19;;;;;;;2.25;1.23;;;;;;;;;;5033812;28;20026;-83
2023/07/24 04:30:44;;;;;;;2.55;1.50;;;;;;;;;;5035705;28;20588;-83
2023/07/24 04:33:10;;;;;;;2.80;1.42;;;;;;;;;;5033267;28;20021;-83
2023/07/24 04:35:35;;;;;;;3.00;1.55;;;;;;;;;;5030443;28;20024;-82
2023/07/24 04:38:00;;;;;;;2.20;1.20;;;;;;;;;;5031226;28;20485;-83
2023/07/24 04:40:26;;;;;;;3.42;1.55;;;;;;;;;;5041016;28;20025;-83
2023/07/24 04:42:51;;;;;;;3.28;1.48;;;;;;;;;;5051844;28;20126;-83
2023/07/24 04:45:17;;;;;;;3.38;1.70;;;;;;;;;;5051507;28;20063;-83
2023/07/24 04:47:48;;;;;;;5.15;1.65;;;;;;;;;;5057755;28;20060;-83
2023/07/24 04:50:14;;;;;;;1.90;0.98;;;;;;;;;;5029433;28;20665;-83
2023/07/24 04:52:39;;;;;;;2.17;1.20;;;;;;;;;;5030536;28;20441;-83
2023/07/24 04:55:04;;;;;;;3.42;1.60;;;;;;;;;;5029703;28;20052;-83
2023/07/24 04:57:30;;;;;;;2.20;1.15;;;;;;;;;;5032542;28;20017;-82
2023/07/24 04:59:55;;;;;;;3.47;1.50;;;;;;;;;;5030055;28;20119;-83
2023/07/24 05:02:20;;;;;;;3.22;1.50;;;;;;;;;;5030245;28;20088;-83
2023/07/24 05:04:45;;;;;;;2.13;1.30;;;;;;;;;;5029420;28;20025;-83
2023/07/24 05:07:16;;;;;;;2.97;1.52;;;;;;;;;;5029214;28;20469;-83
2023/07/24 05:09:41;;;;;;;3.25;1.33;;;;;;;;;;5035230;28;20018;-83
2023/07/24 05:12:07;;;;;;;3.22;1.70;;;;;;;;;;5032819;28;20033;-82
2023/07/24 05:14:35;;;;;;;2.63;1.33;;;;;;;;;;5033586;28;20072;-83
2023/07/24 05:17:00;;;;;;;3.63;1.75;;;;;;;;;;5033281;28;20101;-83
2023/07/24 05:19:26;;;;;;;2.25;1.20;;;;;;;;;;5033401;28;20439;-83
2023/07/24 05:21:51;;;;;;;3.60;1.25;;;;;;;;;;5032834;28;20116;-83
2023/07/24 05:24:16;;;;;;;5.00;1.48;;;;;;;;;;5033222;28;20152;-83
2023/07/24 05:26:41;;;;;;;3.50;1.48;;;;;;;;;;5033451;28;20055;-83
2023/07/24 05:29:07;;;;;;;3.40;1.65;;;;;;;;;;5034615;28;20034;-82
2023/07/24 05:31:33;;;;;;;5.93;1.63;;;;;;;;;;5033619;28;20022;-83
2023/07/24 05:33:59;;;;;;;3.17;1.55;;;;;;;;;;5033637;28;20339;-83
2023/07/24 05:36:24;;;;;;;3.13;1.20;;;;;;;;;;5033465;28;20108;-83
2023/07/24 05:38:51;;;;;;;6.00;1.38;;;;;;;;;;5033976;28;20018;-83
2023/07/24 05:41:19;;;;;;;6.60;1.60;;;;;;;;;;5028382;28;20018;-82
2023/07/24 05:43:44;;;;;;;3.05;1.67;;;;;;;;;;5036116;28;20045;-83
2023/07/24 05:46:10;;;;;;;3.55;1.27;;;;;;;;;;5070201;28;20017;-83
2023/07/24 05:48:35;;;;;;;3.75;1.80;;;;;;;;;;5063575;28;20029;-83
2023/07/24 05:51:01;;;;;;;2.78;1.50;;;;;;;;;;5042669;28;20033;-83
2023/07/24 05:53:28;;;;;;;4.15;1.83;;;;;;;;;;5065405;28;20195;-83
2023/07/24 05:56:03;;;;;;;2.83;1.67;;;;;;;;;;5066391;28;20029;-82
2023/07/24 05:58:28;;;;;;;3.40;2.08;;;;;;;;;;5026494;28;20045;-84
2023/07/24 06:00:55;;;;;;;4.07;1.48;;;;;;;;;;5038802;28;20377;-83
2023/07/24 06:03:20;;;;;;;4.25;2.40;;;;;;;;;;5046611;28;20025;-84
2023/07/24 06:05:45;;;;;;;3.70;1.98;;;;;;;;;;5031286;28;20043;-83
2023/07/24 06:08:11;;;;;;;2.75;1.60;;;;;;;;;;5041934;28;20078;-84
2023/07/24 06:10:37;;;;;;;3.20;1.80;;;;;;;;;;5034318;28;20017;-83
2023/07/24 06:13:02;;;;;;;4.63;2.03;;;;;;;;;;5064215;28;20031;-84
2023/07/24 06:15:27;;;;;;;2.50;1.35;;;;;;;;;;5032668;28;20024;-83
2023/07/24 06:17:53;;;;;;;3.70;1.77;;;;;;;;;;5043080;28;20026;-84
2023/07/24 06:20:18;;;;;;;3.35;1.83;;;;;;;;;;5025016;28;20109;-84
2023/07/24 06:22:43;;;;;;;4.03;1.92;;;;;;;;;;5035639;28;20055;-82
2023/07/24 06:25:08;;;;;;;4.70;1.52;;;;;;;;;;5053763;28;20072;-84
2023/07/24 06:27:34;;;;;;;3.60;1.63;;;;;;;;;;5048054;28;20025;-83
2023/07/24 06:29:59;;;;;;;2.80;1.67;;;;;;;;;;5036027;28;20101;-83
2023/07/24 06:32:24;;;;;;;5.03;1.92;;;;;;;;;;5029258;28;20089;-83
2023/07/24 06:34:50;;;;;;;3.75;1.90;;;;;;;;;;5032879;28;20036;-83
2023/07/24 06:37:15;;;;;;;2.38;1.30;;;;;;;;;;5029631;28;20026;-83
2023/07/24 06:39:40;;;;;;;3.28;1.70;;;;;;;;;;5030558;28;20132;-83
2023/07/24 06:42:05;;;;;;;3.47;1.60;;;;;;;;;;5036786;28;20118;-83
2023/07/24 06:44:31;;;;;;;2.60;1.38;;;;;;;;;;5044465;28;20021;-83
2023/07/24 06:46:56;;;;;;;3.08;1.70;;;;;;;;;;5033779;28;20055;-83
2023/07/24 06:49:21;;;;;;;2.88;1.70;;;;;;;;;;5052044;28;20114;-83
2023/07/24 06:51:47;;;;;;;3.20;1.80;;;;;;;;;;5045817;28;20025;-84
2023/07/24 06:54:12;;;;;;;3.50;2.05;;;;;;;;;;5060843;28;20037;-84
2023/07/24 06:56:40;;;;;;;3.50;1.83;;;;;;;;;;5046568;28;20484;-84
2023/07/24 06:59:13;;;;;;;3.17;1.75;;;;;;;;;;5049200;28;20116;-83
2023/07/24 07:01:38;;;;;;;6.60;2.30;;;;;;;;;;5041620;28;20048;-84
2023/07/24 07:04:03;;;;;;;5.63;2.00;;;;;;;;;;5021719;28;20459;-83
2023/07/24 07:06:31;;;;;;;3.85;2.08;;;;;;;;;;5041821;28;20421;-84
2023/07/24 07:08:56;;;;;;;3.50;1.88;;;;;;;;;;5049185;28;20013;-83
2023/07/24 07:11:22;;;;;;;3.15;2.05;;;;;;;;;;5058225;28;20113;-84
2023/07/24 07:13:47;;;;;;;4.05;2.10;;;;;;;;;;5054977;28;20062;-82
2023/07/24 07:16:13;;;;;;;3.88;1.73;;;;;;;;;;5069548;28;20029;-83
2023/07/24 07:18:38;;;;;;;4.28;2.25;;;;;;;;;;5056134;28;20025;-83
2023/07/24 07:21:04;;;;;;;8.10;2.35;;;;;;;;;;5035109;28;20298;-83
2023/07/24 07:23:29;;;;;;;9.77;2.58;;;;;;;;;;5029927;28;20067;-83
2023/07/24 07:25:54;;;;;;;5.32;2.13;;;;;;;;;;5034300;28;20025;-84
2023/07/24 07:28:22;;;;;;;3.97;2.05;;;;;;;;;;5069638;28;20058;-84
2023/07/24 07:30:47;;;;;;;4.63;2.38;;;;;;;;;;5055940;28;20056;-84
2023/07/24 07:33:13;;;;;;;4.85;2.22;;;;;;;;;;5056569;28;20036;-83
2023/07/24 07:35:38;;;;;;;4.70;2.17;;;;;;;;;;5037211;28;20064;-84
2023/07/24 07:38:03;;;;;;;6.22;2.05;;;;;;;;;;5063703;28;20607;-84
2023/07/24 07:40:29;;;;;;;5.55;2.20;;;;;;;;;;5032640;28;20079;-84
2023/07/24 07:42:55;;;;;;;6.47;2.10;;;;;;;;;;5043341;28;20033;-83
2023/07/24 07:45:21;;;;;;;3.78;1.80;;;;;;;;;;5016816;28;20115;-83
2023/07/24 07:47:46;;;;;;;4.65;1.85;;;;;;;;;;5037861;28;20476;-82
2023/07/24 07:50:12;;;;;;;3.60;2.05;;;;;;;;;;5032101;28;20467;-84
2023/07/24 07:52:37;;;;;;;3.45;1.80;;;;;;;;;;5057702;28;20428;-84
2023/07/24 07:55:03;;;;;;;2.47;1.60;;;;;;;;;;5043566;28;20116;-84
2023/07/24 07:57:28;;;;;;;5.13;2.10;;;;;;;;;;5045930;28;20101;-84
2023/07/24 07:59:53;;;;;;;3.65;1.98;;;;;;;;;;5040839;28;20090;-83
2023/07/24 08:02:19;;;;;;;2.92;1.60;;;;;;;;;;5016787;28;20033;-84
2023/07/24 08:04:46;;;;;;;3.83;1.77;;;;;;;;;;5031174;28;20025;-83
2023/07/24 08:07:12;;;;;;;3.30;1.73;;;;;;;;;;5033003;28;20037;-83
2023/07/24 08:09:38;;;;;;;4.63;2.60;;;;;;;;;;5059904;28;20028;-84
2023/07/24 08:12:03;;;;;;;4.05;1.88;;;;;;;;;;5046108;28;20203;-84
2023/07/24 08:14:28;;;;;;;3.55;2.10;;;;;;;;;;5052427;28;20025;-84
2023/07/24 08:16:54;;;;;;;4.15;1.90;;;;;;;;;;5055908;28;20465;-84
2023/07/24 08:19:22;;;;;;;3.75;1.63;;;;;;;;;;5034532;28;20080;-84
2023/07/24 08:21:47;;;;;;;3.70;1.80;;;;;;;;;;5067558;28;20047;-83
2023/07/24 08:24:13;;;;;;;3.58;1.55;;;;;;;;;;5052446;28;20017;-83
2023/07/24 08:26:38;;;;;;;5.00;1.70;;;;;;;;;;5051949;28;20117;-83
2023/07/24 08:29:03;;;;;;;3.17;1.63;;;;;;;;;;5041394;28;20111;-84
2023/07/24 08:31:29;;;;;;;4.28;1.60;;;;;;;;;;5038083;28;20116;-84
2023/07/24 08:33:54;;;;;;;9.43;1.83;;;;;;;;;;5040261;28;20032;-84
2023/07/24 08:36:22;;;;;;;2.80;1.83;;;;;;;;;;5036086;28;20028;-83
2023/07/24 08:38:48;;;;;;;5.60;1.92;;;;;;;;;;5067768;28;20471;-83
2023/07/24 08:41:14;;;;;;;5.15;1.80;;;;;;;;;;5040821;28;20025;-84
2023/07/24 08:43:40;;;;;;;6.55;2.28;;;;;;;;;;5039149;28;20021;-82
2023/07/24 08:46:06;;;;;;;7.18;2.22;;;;;;;;;;5054103;28;20030;-84
2023/07/24 08:48:39;;;;;;;4.38;1.80;;;;;;;;;;5050598;28;20620;-84
2023/07/24 08:51:05;;;;;;;5.28;1.52;;;;;;;;;;5067644;28;20025;-84
2023/07/24 08:53:36;;;;;;;2.67;1.58;;;;;;;;;;5069854;28;20091;-83
2023/07/24 08:56:03;;;;;;;6.28;1.52;;;;;;;;;;5034249;28;20110;-83
2023/07/24 08:58:28;;;;;;;4.00;1.50;;;;;;;;;;5032637;28;20385;-84
2023/07/24 09:00:54;;;;;;;5.43;1.60;;;;;;;;;;5071934;28;20025;-83
2023/07/24 09:03:22;;;;;;;4.63;1.90;;;;;;;;;;5070338;28;20013;-83
2023/07/24 09:05:51;;;;;;;4.47;1.58;;;;;;;;;;5065444;28;20013;-83
2023/07/24 09:08:18;;;;;;;4.95;1.65;;;;;;;;;;5035847;28;20523;-83
2023/07/24 09:10:44;;;;;;;5.68;1.50;;;;;;;;;;5050635;28;20040;-83
2023/07/24 09:13:11;;;;;;;3.47;1.55;;;;;;;;;;5064587;28;20112;-84
2023/07/24 09:15:41;;;;;;;5.68;1.70;;;;;;;;;;5040523;28;20029;-83
2023/07/24 09:18:06;;;;;;;3.30;1.80;;;;;;;;;;5056184;28;20045;-83
2023/07/24 09:20:38;;;;;;;3.08;1.60;;;;;;;;;;5046558;28;20036;-84
2023/07/24 09:23:03;;;;;;;3.55;1.80;;;;;;;;;;5062484;28;20147;-85
2023/07/24 09:25:32;;;;;;;8.70;1.60;;;;;;;;;;5045597;28;20411;-84
2023/07/24 09:27:58;;;;;;;3.17;1.60;;;;;;;;;;5070015;28;20037;-85
2023/07/24 09:30:24;;;;;;;4.40;1.50;;;;;;;;;;5059499;28;20021;-84
2023/07/24 09:32:55;;;;;;;8.00;2.88;;;;;;;;;;5032524;28;20044;-83
2023/07/24 09:35:25;;;;;;;4.63;2.05;;;;;;;;;;5032952;28;20026;-83
2023/07/24 09:37:51;;;;;;;3.53;1.92;;;;;;;;;;5027345;28;20237;-84
2023/07/24 09:40:16;;;;;;;5.93;1.65;;;;;;;;;;5049583;28;20137;-84
2023/07/24 09:42:41;;;;;;;10.95;2.00;;;;;;;;;;5033781;28;20059;-84
2023/07/24 09:45:09;;;;;;;4.32;1.83;;;;;;;;;;5047451;28;20017;-85
2023/07/24 09:47:35;;;;;;;7.85;1.80;;;;;;;;;;5041743;28;20090;-84
2023/07/24 09:50:03;;;;;;;5.43;1.70;;;;;;;;;;5053525;28;20045;-85
2023/07/24 09:52:29;;;;;;;3.70;1.83;;;;;;;;;;5032873;28;20104;-85
2023/07/24 09:55:01;;;;;;;2.55;1.60;;;;;;;;;;5046126;28;20043;-85
2023/07/24 09:57:28;;;;;;;3.92;2.22;;;;;;;;;;5050718;28;20018;-86
2023/07/24 09:59:54;;;;;;;5.28;1.80;;;;;;;;;;5045997;28;20056;-86
2023/07/24 10:02:19;;;;;;;5.32;2.13;;;;;;;;;;5056407;28;20017;-85
2023/07/24 10:04:45;;;;;;;5.97;2.42;;;;;;;;;;5061363;28;20029;-85
2023/07/24 10:07:13;;;;;;;4.18;2.05;;;;;;;;;;5023352;28;20056;-85
2023/07/24 10:09:39;;;;;;;5.43;2.22;;;;;;;;;;5056880;28;20025;-85
2023/07/24 10:12:08;;;;;;;2.92;2.00;;;;;;;;;;5034711;28;20033;-85
2023/07/24 10:14:33;;;;;;;5.57;1.48;;;;;;;;;;5042803;28;20472;-85
2023/07/24 10:16:59;;;;;;;6.93;2.30;;;;;;;;;;5063002;28;20032;-84
2023/07/24 10:19:34;;;;;;;4.55;1.90;;;;;;;;;;5038530;28;20068;-85
2023/07/24 10:22:02;;;;;;;7.65;2.30;;;;;;;;;;5068867;28;20112;-84
2023/07/24 10:24:32;;;;;;;3.40;1.85;;;;;;;;;;5069209;28;20016;-84
2023/07/24 10:26:57;;;;;;;3.55;2.03;;;;;;;;;;5058015;28;20139;-84
2023/07/24 10:29:26;;;;;;;4.40;1.98;;;;;;;;;;5066359;28;20112;-84
2023/07/24 10:31:56;;;;;;;5.40;2.53;;;;;;;;;;5060572;28;20033;-85
2023/07/24 10:34:22;;;;;;;4.13;2.15;;;;;;;;;;5032957;28;20392;-85
2023/07/24 10:36:47;;;;;;;6.25;2.78;;;;;;;;;;5069230;28;20112;-85
2023/07/24 10:39:13;;;;;;;6.20;2.50;;;;;;;;;;5055517;28;20113;-85
2023/07/24 10:41:39;;;;;;;7.45;3.05;;;;;;;;;;5036763;28;20029;-84
2023/07/24 10:44:05;;;;;;;6.00;2.70;;;;;;;;;;5051208;28;20021;-84
2023/07/24 10:46:39;;;;;;;6.60;2.72;;;;;;;;;;5031416;28;20525;-84
2023/07/24 10:49:05;;;;;;;5.68;3.10;;;;;;;;;;5037762;28;20033;-84
2023/07/24 10:51:34;;;;;;;5.15;2.97;;;;;;;;;;5044753;28;20021;-85
2023/07/24 10:54:00;;;;;;;6.03;3.45;;;;;;;;;;5053742;28;20380;-85
2023/07/24 10:56:28;;;;;;;7.43;2.55;;;;;;;;;;5030512;28;20079;-85
2023/07/24 10:58:54;;;;;;;9.18;2.92;;;;;;;;;;5040854;28;20349;-85
2023/07/24 11:01:19;;;;;;;7.22;2.83;;;;;;;;;;5039270;28;20017;-85
2023/07/24 11:03:44;;;;;;;7.88;2.65;;;;;;;;;;5031973;28;20032;-85
2023/07/24 11:06:17;;;;;;;7.85;3.20;;;;;;;;;;5032053;28;20013;-84
2023/07/24 11:08:42;;;;;;;4.93;2.42;;;;;;;;;;5037383;28;20053;-84
2023/07/24 11:11:08;;;;;;;4.10;2.63;;;;;;;;;;5038364;28;20075;-85
2023/07/24 11:13:37;;;;;;;4.07;1.52;;;;;;;;;;5059815;28;20017;-85
2023/07/24 11:16:04;;;;;;;3.40;2.00;;;;;;;;;;5035977;28;20021;-85
2023/07/24 11:18:29;;;;;;;2.55;1.60;;;;;;;;;;5059807;28;20108;-85
2023/07/24 11:20:55;;;;;;;5.13;1.75;;;;;;;;;;5048003;28;20090;-85
2023/07/24 11:23:21;;;;;;;2.30;1.30;;;;;;;;;;5032019;28;20022;-85
2023/07/24 11:25:47;;;;;;;4.28;1.80;;;;;;;;;;5046362;28;20017;-84
2023/07/24 11:28:13;;;;;;;2.50;1.50;;;;;;;;;;5060333;28;20021;-85
2023/07/24 11:30:39;;;;;;;3.15;1.33;;;;;;;;;;5048921;28;20036;-85
2023/07/24 11:33:05;;;;;;;2.60;1.50;;;;;;;;;;5051965;28;20436;-85
2023/07/24 11:35:35;;;;;;;3.15;1.20;;;;;;;;;;5068516;28;20326;-85
2023/07/24 11:38:00;;;;;;;3.20;1.30;;;;;;;;;;5051291;28;20108;-83
2023/07/24 11:40:33;;;;;;;3.70;1.70;;;;;;;;;;5040319;28;20033;-85
2023/07/24 11:42:59;;;;;;;4.45;2.30;;;;;;;;;;5072508;28;20017;-85
2023/07/24 11:45:24;;;;;;;4.97;1.73;;;;;;;;;;5066305;28;20025;-85
2023/07/24 11:47:50;;;;;;;5.63;2.03;;;;;;;;;;5040679;28;20385;-84
2023/07/24 11:50:16;;;;;;;3.60;1.70;;;;;;;;;;5047336;28;20010;-85
2023/07/24 11:52:45;;;;;;;3.60;1.70;;;;;;;;;;5068681;28;20028;-85
2023/07/24 11:55:11;;;;;;;3.05;1.85;;;;;;;;;;5065336;28;20025;-84
2023/07/24 11:57:37;;;;;;;4.05;1.80;;;;;;;;;;5053922;28;20098;-85
2023/07/24 12:00:06;;;;;;;3.10;2.10;;;;;;;;;;5054519;28;20049;-84
2023/07/24 12:02:32;;;;;;;3.50;2.00;;;;;;;;;;5050045;28;20056;-85
2023/07/24 12:04:58;;;;;;;4.47;2.35;;;;;;;;;;5053982;28;20027;-85
2023/07/24 12:07:28;;;;;;;3.58;1.70;;;;;;;;;;5051062;28;20028;-85
2023/07/24 12:09:54;;;;;;;3.53;2.28;;;;;;;;;;5060782;28;20079;-85
2023/07/24 12:12:19;;;;;;;6.32;2.28;;;;;;;;;;5053744;28;20482;-85
2023/07/24 12:14:48;;;;;;;3.22;2.08;;;;;;;;;;5059290;28;20029;-86
2023/07/24 12:17:17;;;;;;;9.48;3.28;;;;;;;;;;5049165;28;20422;-86
2023/07/24 12:19:45;;;;;;;4.25;2.40;;;;;;;;;;5042239;28;20060;-84
2023/07/24 12:22:10;;;;;;;4.85;3.00;;;;;;;;;;5045281;28;20491;-85
2023/07/24 12:24:38;;;;;;;4.00;2.65;;;;;;;;;;5064735;28;20104;-85
2023/07/24 12:27:03;;;;;;;4.60;2.28;;;;;;;;;;5051948;28;20026;-85
2023/07/24 12:29:29;;;;;;;7.07;3.00;;;;;;;;;;5042918;28;20100;-86
2023/07/24 12:31:54;;;;;;;5.55;2.65;;;;;;;;;;5056489;28;20441;-86
2023/07/24 12:34:19;;;;;;;5.10;2.80;;;;;;;;;;5047325;28;20064;-85
2023/07/24 12:36:47;;;;;;;4.20;2.70;;;;;;;;;;5034449;28;20032;-84
2023/07/24 12:39:15;;;;;;;5.05;2.42;;;;;;;;;;5034325;28;20067;-85
2023/07/24 12:41:40;;;;;;;3.97;2.53;;;;;;;;;;5050793;28;20017;-85
2023/07/24 12:44:06;;;;;;;5.78;3.35;;;;;;;;;;5071225;28;20024;-86
2023/07/24 12:46:34;;;;;;;5.50;2.80;;;;;;;;;;5056659;28;20117;-86
2023/07/24 12:48:59;;;;;;;4.45;2.58;;;;;;;;;;5020847;28;20025;-85
2023/07/24 12:51:25;;;;;;;5.13;2.88;;;;;;;;;;5020422;28;20093;-86
2023/07/24 12:53:50;;;;;;;7.75;3.22;;;;;;;;;;5053354;28;20020;-85
2023/07/24 12:56:15;;;;;;;7.25;2.78;;;;;;;;;;5063094;28;20025;-85
2023/07/24 12:58:40;;;;;;;6.25;3.30;;;;;;;;;;5050097;28;20020;-85
2023/07/24 13:01:08;;;;;;;6.38;3.20;;;;;;;;;;5063976;28;20021;-85
2023/07/24 13:03:34;;;;;;;5.43;2.92;;;;;;;;;;5029248;28;20153;-85
2023/07/24 13:06:00;;;;;;;7.57;3.60;;;;;;;;;;5040854;28;20025;-85
2023/07/24 13:08:25;;;;;;;5.20;3.00;;;;;;;;;;5060516;28;20044;-85
2023/07/24 13:10:50;;;;;;;7.47;2.90;;;;;;;;;;5051797;28;20410;-85
2023/07/24 13:13:31;;;;;;;4.75;3.25;;;;;;;;;;5039577;28;20025;-85
2023/07/24 13:15:57;;;;;;;6.05;2.55;;;;;;;;;;5038126;28;20021;-85
2023/07/24 13:18:22;;;;;;;5.80;3.78;;;;;;;;;;5036068;28;20026;-84
2023/07/24 13:20:48;;;;;;;4.90;2.63;;;;;;;;;;5028092;28;20116;-85
2023/07/24 13:23:13;;;;;;;8.35;3.30;;;;;;;;;;5040888;28;20025;-84
2023/07/24 13:25:38;;;;;;;7.28;3.45;;;;;;;;;;5042219;28;20121;-85
2023/07/24 13:28:06;;;;;;;5.63;3.20;;;;;;;;;;5048528;28;20021;-85
2023/07/24 13:30:31;;;;;;;12.52;3.38;;;;;;;;;;5031471;28;20453;-85
2023/07/24 13:32:57;;;;;;;7.43;3.83;;;;;;;;;;5051440;28;20017;-84
2023/07/24 13:35:22;;;;;;;6.82;3.83;;;;;;;;;;5066886;28;20102;-85
2023/07/24 13:37:50;;;;;;;6.18;3.85;;;;;;;;;;5070130;28;20017;-85
2023/07/24 13:40:15;;;;;;;7.53;3.47;;;;;;;;;;5066899;28;20084;-84
2023/07/24 13:42:40;;;;;;;5.32;3.42;;;;;;;;;;5032629;28;20496;-85
2023/07/24 13:45:06;;;;;;;5.05;3.20;;;;;;;;;;5032658;28;20028;-84
2023/07/24 13:47:31;;;;;;;5.45;3.95;;;;;;;;;;5032276;28;20116;-85
2023/07/24 13:49:58;;;;;;;7.38;4.10;;;;;;;;;;5032718;28;20026;-85
2023/07/24 13:52:23;;;;;;;8.75;3.75;;;;;;;;;;5032375;28;20044;-85
2023/07/24 13:54:51;;;;;;;5.90;3.05;;;;;;;;;;5033764;28;20025;-84
2023/07/24 13:57:16;;;;;;;5.93;3.38;;;;;;;;;;5032709;28;20018;-85
2023/07/24 13:59:41;;;;;;;6.45;3.50;;;;;;;;;;5032091;28;20043;-84
2023/07/24 14:02:07;;;;;;;10.20;4.38;;;;;;;;;;5032762;28;20029;-85
2023/07/24 14:04:32;;;;;;;5.53;3.50;;;;;;;;;;5032413;28;20025;-85
2023/07/24 14:06:57;;;;;;;5.40;3.30;;;;;;;;;;5032897;28;20121;-85
2023/07/24 14:09:23;;;;;;;5.85;2.83;;;;;;;;;;5032417;28;20022;-85
2023/07/24 14:11:51;;;;;;;7.63;2.85;;;;;;;;;;5032952;28;20028;-84
2023/07/24 14:14:17;;;;;;;6.50;3.17;;;;;;;;;;5031147;28;20029;-84
2023/07/24 14:16:49;;;;;;;4.78;3.20;;;;;;;;;;5031868;28;20040;-85
2023/07/24 14:19:15;;;;;;;5.07;2.75;;;;;;;;;;5032227;28;20025;-85
2023/07/24 14:21:40;;;;;;;4.75;2.60;;;;;;;;;;5028649;28;20037;-85
2023/07/24 14:24:05;;;;;;;4.38;2.10;;;;;;;;;;5026885;28;20030;-84
2023/07/24 14:26:31;;;;;;;5.07;2.33;;;;;;;;;;5031698;28;20014;-85
2023/07/24 14:28:56;;;;;;;4.15;1.90;;;;;;;;;;5033048;28;20017;-85
2023/07/24 14:31:22;;;;;;;3.80;2.13;;;;;;;;;;5033850;28;20021;-85
2023/07/24 14:33:47;;;;;;;6.32;2.25;;;;;;;;;;5031130;28;20025;-85